createdAt,value
2018-02-03T00:00:04.286Z,5.50
2018-02-03T00:02:32.311Z,5.90
2018-02-03T00:05:01.888Z,6.40
2018-02-03T00:07:30.031Z,6.00
2018-02-03T00:09:59.780Z,5.97
2018-02-03T00:12:28.407Z,5.73
2018-02-03T00:14:56.683Z,7.23
2018-02-03T00:17:24.917Z,5.40
2018-02-03T00:19:54.271Z,5.80
2018-02-03T00:22:24.002Z,5.20
2018-02-03T00:24:52.620Z,47.77
2018-02-03T00:27:21.253Z,12.20
2018-02-03T00:29:51.051Z,6.07
2018-02-03T00:32:19.267Z,5.87
2018-02-03T00:34:47.510Z,6.20
2018-02-03T00:37:17.119Z,6.90
2018-02-03T00:39:46.021Z,5.70
2018-02-03T00:42:14.266Z,6.37
2018-02-03T00:44:42.527Z,6.63
2018-02-03T00:47:11.531Z,7.90
2018-02-03T00:49:39.761Z,7.70
2018-02-03T00:52:08.036Z,8.87
2018-02-03T00:54:36.260Z,7.87
2018-02-03T00:57:04.497Z,8.07
2018-02-03T00:59:32.764Z,8.60
2018-02-03T01:02:01.008Z,6.63
2018-02-03T01:04:30.429Z,6.00
2018-02-03T01:06:58.700Z,6.20
2018-02-03T01:09:28.297Z,5.90
2018-02-03T01:11:56.791Z,6.93
2018-02-03T01:14:25.816Z,5.70
2018-02-03T01:16:54.036Z,5.80
2018-02-03T01:19:23.633Z,6.70
2018-02-03T01:21:51.770Z,5.70
2018-02-03T01:24:19.987Z,6.20
2018-02-03T01:26:48.222Z,7.13
2018-02-03T01:29:16.491Z,5.83
2018-02-03T01:31:45.492Z,6.57
2018-02-03T01:34:13.760Z,7.57
2018-02-03T01:36:43.413Z,7.40
2018-02-03T01:39:11.930Z,6.77
2018-02-03T01:41:41.180Z,6.63
2018-02-03T01:44:10.235Z,7.90
2018-02-03T01:46:38.464Z,7.30
2018-02-03T01:49:06.692Z,7.23
2018-02-03T01:51:35.344Z,7.07
2018-02-03T01:54:03.583Z,7.63
2018-02-03T01:56:33.326Z,7.30
2018-02-03T01:59:01.587Z,7.17
2018-02-03T02:01:29.834Z,7.13
2018-02-03T02:03:58.068Z,6.87
2018-02-03T02:06:27.122Z,6.70
2018-02-03T02:08:56.104Z,6.40
2018-02-03T02:11:25.096Z,7.60
2018-02-03T02:13:53.347Z,6.53
2018-02-03T02:16:21.567Z,6.27
2018-02-03T02:18:49.791Z,5.93
2018-02-03T02:21:18.064Z,6.47
2018-02-03T02:23:46.293Z,6.57
2018-02-03T02:26:14.525Z,6.60
2018-02-03T02:28:43.939Z,7.67
2018-02-03T02:31:12.573Z,8.00
2018-02-03T02:33:42.163Z,9.30
2018-02-03T02:36:11.469Z,8.10
2018-02-03T02:38:41.229Z,6.93
2018-02-03T02:41:09.476Z,6.93
2018-02-03T02:43:37.738Z,6.80
2018-02-03T02:46:07.329Z,7.20
2018-02-03T02:48:35.834Z,7.27
2018-02-03T02:51:04.089Z,7.17
2018-02-03T02:53:32.312Z,6.87
2018-02-03T02:56:01.326Z,7.37
2018-02-03T02:58:30.951Z,7.20
2018-02-03T03:00:59.825Z,8.20
2018-02-03T03:03:28.045Z,6.20
2018-02-03T03:05:56.303Z,6.70
2018-02-03T03:08:24.562Z,7.07
2018-02-03T03:10:52.784Z,6.33
2018-02-03T03:13:22.410Z,6.77
2018-02-03T03:15:50.512Z,5.57
2018-02-03T03:18:19.549Z,6.77
2018-02-03T03:20:48.909Z,6.87
2018-02-03T03:23:17.142Z,6.27
2018-02-03T03:25:45.375Z,6.97
2018-02-03T03:28:13.671Z,6.23
2018-02-03T03:30:43.269Z,6.00
2018-02-03T03:33:12.154Z,5.20
2018-02-03T03:35:41.182Z,6.50
2018-02-03T03:38:09.409Z,5.57
2018-02-03T03:40:37.627Z,6.70
2018-02-03T03:43:07.387Z,5.73
2018-02-03T03:45:35.613Z,6.10
2018-02-03T03:48:03.850Z,5.10
2018-02-03T03:50:32.126Z,6.10
2018-02-03T03:53:00.345Z,5.93
2018-02-03T03:55:28.568Z,5.20
2018-02-03T03:57:58.191Z,6.30
2018-02-03T04:00:27.657Z,6.27
2018-02-03T04:02:57.274Z,5.80
2018-02-03T04:05:26.288Z,6.43
2018-02-03T04:07:55.275Z,5.33
2018-02-03T04:10:23.520Z,5.83
2018-02-03T04:12:51.780Z,6.17
2018-02-03T04:15:20.775Z,5.47
2018-02-03T04:17:48.983Z,5.27
2018-02-03T04:20:17.250Z,6.20
2018-02-03T04:22:45.483Z,6.80
2018-02-03T04:25:13.722Z,6.10
2018-02-03T04:27:43.524Z,6.53
2018-02-03T04:30:11.751Z,5.40
2018-02-03T04:32:40.800Z,6.77
2018-02-03T04:35:09.852Z,5.80
2018-02-03T04:37:38.080Z,7.33
2018-02-03T04:40:06.299Z,6.33
2018-02-03T04:42:35.902Z,6.83
2018-02-03T04:45:04.767Z,7.00
2018-02-03T04:47:32.987Z,6.63
2018-02-03T04:50:01.267Z,7.93
2018-02-03T04:52:29.501Z,7.63
2018-02-03T04:54:57.744Z,7.53
2018-02-03T04:57:26.759Z,7.20
2018-02-03T04:59:54.984Z,7.07
2018-02-03T05:02:23.226Z,7.07
2018-02-03T05:04:51.484Z,8.10
2018-02-03T05:07:19.712Z,8.37
2018-02-03T05:09:47.946Z,8.00
2018-02-03T05:12:16.263Z,6.47
2018-02-03T05:14:44.493Z,8.20
2018-02-03T05:17:13.857Z,6.17
2018-02-03T05:19:42.135Z,5.60
2018-02-03T05:22:10.368Z,6.33
2018-02-03T05:24:38.583Z,5.80
2018-02-03T05:27:06.844Z,6.30
2018-02-03T05:29:35.060Z,5.73
2018-02-03T05:32:03.278Z,6.03
2018-02-03T05:34:31.548Z,5.60
2018-02-03T05:37:00.539Z,6.20
2018-02-03T05:39:30.149Z,6.27
2018-02-03T05:41:58.699Z,6.33
2018-02-03T05:44:26.924Z,7.70
2018-02-03T05:46:55.158Z,7.30
2018-02-03T05:49:23.439Z,7.33
2018-02-03T05:51:51.659Z,5.63
2018-02-03T05:54:20.275Z,6.80
2018-02-03T05:56:48.537Z,7.17
2018-02-03T05:59:17.528Z,7.30
2018-02-03T06:01:46.155Z,8.00
2018-02-03T06:04:14.426Z,7.57
2018-02-03T06:06:44.017Z,6.17
2018-02-03T06:09:12.912Z,7.43
2018-02-03T06:11:41.195Z,7.33
2018-02-03T06:14:10.191Z,7.27
2018-02-03T06:16:39.179Z,7.60
2018-02-03T06:19:07.461Z,7.50
2018-02-03T06:21:36.457Z,8.43
2018-02-03T06:24:04.684Z,6.97
2018-02-03T06:26:32.949Z,7.37
2018-02-03T06:29:01.197Z,9.43
2018-02-03T06:31:29.441Z,6.40
2018-02-03T06:33:59.230Z,7.70
2018-02-03T06:36:27.460Z,7.60
2018-02-03T06:38:55.684Z,8.00
2018-02-03T06:41:23.969Z,8.40
2018-02-03T06:43:53.543Z,7.90
2018-02-03T06:46:22.777Z,7.57
2018-02-03T06:48:52.555Z,8.33
2018-02-03T06:51:20.771Z,8.07
2018-02-03T06:53:50.365Z,8.00
2018-02-03T06:56:19.283Z,8.60
2018-02-03T06:58:48.864Z,9.70
2018-02-03T07:01:17.355Z,8.27
2018-02-03T07:03:46.383Z,9.63
2018-02-03T07:06:15.981Z,8.80
2018-02-03T07:08:44.860Z,10.07
2018-02-03T07:11:13.132Z,8.07
2018-02-03T07:13:42.137Z,9.90
2018-02-03T07:16:11.148Z,9.40
2018-02-03T07:18:39.412Z,11.40
2018-02-03T07:21:07.644Z,10.03
2018-02-03T07:23:35.868Z,9.80
2018-02-03T07:26:05.509Z,9.67
2018-02-03T07:28:34.014Z,9.90
2018-02-03T07:31:03.591Z,9.43
2018-02-03T07:33:32.522Z,10.17
2018-02-03T07:36:02.104Z,11.80
2018-02-03T07:38:31.569Z,10.87
2018-02-03T07:41:00.113Z,11.37
2018-02-03T07:43:29.483Z,11.90
2018-02-03T07:45:58.496Z,11.87
2018-02-03T07:48:26.770Z,13.47
2018-02-03T07:50:56.495Z,12.53
2018-02-03T07:53:24.719Z,13.60
2018-02-03T07:55:52.979Z,13.37
2018-02-03T07:58:21.211Z,13.10
2018-02-03T08:00:50.218Z,12.60
2018-02-03T08:03:19.262Z,11.20
2018-02-03T08:05:48.262Z,10.37
2018-02-03T08:08:17.631Z,12.20
2018-02-03T08:10:45.938Z,12.30
2018-02-03T08:13:15.538Z,11.97
2018-02-03T08:15:45.018Z,11.40
2018-02-03T08:18:14.235Z,12.57
2018-02-03T08:20:42.868Z,11.93
2018-02-03T08:23:12.467Z,11.80
2018-02-03T08:25:40.615Z,12.47
2018-02-03T08:28:10.359Z,11.40
2018-02-03T08:30:39.976Z,10.53
2018-02-03T08:33:11.460Z,11.43
2018-02-03T08:35:40.525Z,11.67
2018-02-03T08:38:08.776Z,12.90
2018-02-03T08:40:37.009Z,11.70
2018-02-03T08:43:05.263Z,10.63
2018-02-03T08:45:33.519Z,11.67
2018-02-03T08:48:01.743Z,11.40
2018-02-03T08:50:31.403Z,10.33
2018-02-03T08:53:00.260Z,12.60
2018-02-03T08:55:28.523Z,13.97
2018-02-03T08:57:59.468Z,13.23
2018-02-03T09:00:28.899Z,13.93
2018-02-03T09:02:57.755Z,17.13
2018-02-03T09:05:27.174Z,17.40
2018-02-03T09:07:56.163Z,21.50
2018-02-03T09:10:24.400Z,20.37
2018-02-03T09:12:54.163Z,21.20
2018-02-03T09:15:22.407Z,24.00
2018-02-03T09:17:51.042Z,25.80
2018-02-03T09:20:20.444Z,18.73
2018-02-03T09:22:48.696Z,18.67
2018-02-03T09:25:16.933Z,17.10
2018-02-03T09:27:45.220Z,17.60
2018-02-03T09:30:14.825Z,17.03
2018-02-03T09:32:43.708Z,17.57
2018-02-03T09:35:12.039Z,17.13
2018-02-03T09:37:41.457Z,16.37
2018-02-03T09:40:10.442Z,14.90
2018-02-03T09:42:38.706Z,13.27
2018-02-03T09:45:07.704Z,12.90
2018-02-03T09:47:37.287Z,12.53
2018-02-03T09:50:06.792Z,12.97
2018-02-03T09:52:36.287Z,11.83
2018-02-03T09:55:05.714Z,11.50
2018-02-03T09:57:34.266Z,12.67
2018-02-03T10:00:02.510Z,11.80
2018-02-03T10:02:32.103Z,12.80
2018-02-03T10:05:00.638Z,12.03
2018-02-03T10:07:29.640Z,11.00
2018-02-03T10:09:57.874Z,11.20
2018-02-03T10:12:27.958Z,11.53
2018-02-03T10:14:57.708Z,11.30
2018-02-03T10:17:27.079Z,11.50
2018-02-03T10:19:56.715Z,12.20
2018-02-03T10:22:25.290Z,12.20
2018-02-03T10:24:53.463Z,11.57
2018-02-03T10:27:21.728Z,11.50
2018-02-03T10:29:51.463Z,11.37
2018-02-03T10:32:19.696Z,11.20
2018-02-03T10:34:47.968Z,10.60
2018-02-03T10:37:16.211Z,11.07
2018-02-03T10:39:44.455Z,11.57
2018-02-03T10:42:12.740Z,11.10
2018-02-03T10:44:41.002Z,12.00
2018-02-03T10:47:10.745Z,12.77
2018-02-03T10:49:39.012Z,15.57
2018-02-03T10:52:08.023Z,14.60
2018-02-03T10:54:37.400Z,14.07
2018-02-03T10:57:05.684Z,14.83
2018-02-03T10:59:33.916Z,12.40
2018-02-03T11:02:02.151Z,13.00
2018-02-03T11:04:30.436Z,12.93
2018-02-03T11:06:59.449Z,16.30
2018-02-03T11:09:27.718Z,13.70
2018-02-03T11:11:55.953Z,23.90
2018-02-03T11:14:24.192Z,15.03
2018-02-03T11:16:53.964Z,26.60
2018-02-03T11:19:22.196Z,13.70
2018-02-03T11:21:50.423Z,17.67
2018-02-03T11:24:18.691Z,17.17
2018-02-03T11:26:46.938Z,19.60
2018-02-03T11:29:16.323Z,18.10
2018-02-03T11:31:45.749Z,25.13
2018-02-03T11:34:15.156Z,17.80
2018-02-03T11:36:43.388Z,17.63
2018-02-03T11:39:13.130Z,17.00
2018-02-03T11:41:41.596Z,15.60
2018-02-03T11:44:09.822Z,20.30
2018-02-03T11:46:38.088Z,18.80
2018-02-03T11:49:07.671Z,19.20
2018-02-03T11:51:36.554Z,23.53
2018-02-03T11:56:39.591Z,19.33
2018-02-03T11:59:07.851Z,16.77
2018-02-03T12:01:37.439Z,23.57
2018-02-03T12:04:05.958Z,18.60
2018-02-03T12:06:34.220Z,20.17
2018-02-03T12:09:03.215Z,32.05
2018-02-03T12:11:32.808Z,57.17
2018-02-03T12:14:00.978Z,133.83
2018-02-03T12:16:30.719Z,18.50
2018-02-03T12:18:59.360Z,13.90
2018-02-03T12:21:27.642Z,14.27
2018-02-03T12:23:55.882Z,19.90
2018-02-03T12:26:24.899Z,17.60
2018-02-03T12:28:53.167Z,13.63
2018-02-03T12:31:21.411Z,17.27
2018-02-03T12:33:49.644Z,16.43
2018-02-03T12:36:18.728Z,13.57
2018-02-03T12:38:48.102Z,16.03
2018-02-03T12:41:17.488Z,12.27
2018-02-03T12:43:45.751Z,12.50
2018-02-03T12:46:14.007Z,14.10
2018-02-03T12:48:42.266Z,12.50
2018-02-03T12:51:10.631Z,13.10
2018-02-03T12:53:39.264Z,12.03
2018-02-03T12:56:08.852Z,13.37
2018-02-03T12:58:37.411Z,12.13
2018-02-03T13:01:07.153Z,12.60
2018-02-03T13:03:35.383Z,12.83
2018-02-03T13:06:03.647Z,14.57
2018-02-03T13:08:33.246Z,13.60
2018-02-03T13:11:02.116Z,14.53
2018-02-03T13:13:31.746Z,12.40
2018-02-03T13:16:01.007Z,11.63
2018-02-03T13:18:29.240Z,12.77
2018-02-03T13:20:58.286Z,12.07
2018-02-03T13:23:27.648Z,11.60
2018-02-03T13:25:55.888Z,10.97
2018-02-03T13:28:24.147Z,10.97
2018-02-03T13:30:52.379Z,11.33
2018-02-03T13:33:20.622Z,10.93
2018-02-03T13:35:50.279Z,11.53
2018-02-03T13:38:18.404Z,11.30
2018-02-03T13:40:47.987Z,11.33
2018-02-03T13:43:17.288Z,9.77
2018-02-03T13:45:46.295Z,10.13
2018-02-03T13:48:14.537Z,9.60
2018-02-03T13:50:42.825Z,9.43
2018-02-03T13:53:11.847Z,9.83
2018-02-03T13:55:40.861Z,9.67
2018-02-03T13:58:10.476Z,10.17
2018-02-03T14:00:39.963Z,11.43
2018-02-03T14:03:09.194Z,10.40
2018-02-03T14:05:37.451Z,11.07
2018-02-03T14:08:06.080Z,11.07
2018-02-03T14:10:34.308Z,10.50
2018-02-03T14:13:02.618Z,10.80
2018-02-03T14:15:30.865Z,11.80
2018-02-03T14:18:00.247Z,10.93
2018-02-03T14:20:28.521Z,11.27
2018-02-03T14:22:58.103Z,11.47
2018-02-03T14:25:26.979Z,10.67
2018-02-03T14:27:55.240Z,12.00
2018-02-03T14:30:24.603Z,12.07
2018-02-03T14:32:53.604Z,12.90
2018-02-03T14:35:22.641Z,12.57
2018-02-03T14:37:50.871Z,13.50
2018-02-03T14:40:19.113Z,13.70
2018-02-03T14:42:48.890Z,14.10
2018-02-03T14:45:17.129Z,12.53
2018-02-03T14:47:45.379Z,12.80
2018-02-03T14:50:13.660Z,14.07
2018-02-03T14:52:41.922Z,14.63
2018-02-03T14:55:11.685Z,13.83
2018-02-03T14:57:41.256Z,14.80
2018-02-03T15:00:10.256Z,13.97
2018-02-03T15:02:38.485Z,14.63
2018-02-03T15:05:07.154Z,13.80
2018-02-03T15:07:36.880Z,16.40
2018-02-03T15:10:06.247Z,15.47
2018-02-03T15:12:34.527Z,15.53
2018-02-03T15:15:02.780Z,14.80
2018-02-03T15:17:31.008Z,14.23
2018-02-03T15:20:00.061Z,15.37
2018-02-03T15:22:28.686Z,12.43
2018-02-03T15:24:56.930Z,12.47
2018-02-03T15:27:25.960Z,12.90
2018-02-03T15:29:54.956Z,13.10
2018-02-03T15:32:23.188Z,13.23
2018-02-03T15:34:52.234Z,13.07
2018-02-03T15:37:21.604Z,14.90
2018-02-03T15:39:49.831Z,13.20
2018-02-03T15:42:18.864Z,13.10
2018-02-03T15:44:48.466Z,12.80
2018-02-03T15:47:16.641Z,13.10
2018-02-03T15:49:44.924Z,12.70
2018-02-03T15:52:13.195Z,12.90
2018-02-03T15:54:42.192Z,14.57
2018-02-03T15:57:11.612Z,14.03
2018-02-03T15:59:40.627Z,12.57
2018-02-03T16:02:08.852Z,12.27
2018-02-03T16:04:38.843Z,11.53
2018-02-03T16:07:07.079Z,14.30
2018-02-03T16:09:36.663Z,12.00
2018-02-03T16:12:05.199Z,12.93
2018-02-03T16:14:34.198Z,12.40
2018-02-03T16:17:02.428Z,12.83
2018-02-03T16:19:30.712Z,12.70
2018-02-03T16:21:59.721Z,12.70
2018-02-03T16:24:28.356Z,14.27
2018-02-03T16:26:56.630Z,12.30
2018-02-03T16:29:24.863Z,13.67
2018-02-03T16:31:53.090Z,13.40
2018-02-03T16:34:22.130Z,12.70
2018-02-03T16:36:50.356Z,13.13
2018-02-03T16:39:18.591Z,12.90
2018-02-03T16:41:46.857Z,14.27
2018-02-03T16:44:15.119Z,13.73
2018-02-03T16:46:44.918Z,13.57
2018-02-03T16:49:13.030Z,15.20
2018-02-03T16:51:41.658Z,14.93
2018-02-03T16:54:09.924Z,14.67
2018-02-03T16:56:41.976Z,14.50
2018-02-03T16:59:10.235Z,14.57
2018-02-03T17:01:40.109Z,14.20
2018-02-03T17:04:08.342Z,12.67
2018-02-03T17:06:36.571Z,15.13
2018-02-03T17:09:04.847Z,14.37
2018-02-03T17:11:33.083Z,13.00
2018-02-03T17:14:01.708Z,14.43
2018-02-03T17:16:29.988Z,13.43
2018-02-03T17:18:59.575Z,13.57
2018-02-03T17:21:29.058Z,13.43
2018-02-03T17:23:58.345Z,12.67
2018-02-03T17:26:26.576Z,14.80
2018-02-03T17:28:56.168Z,13.63
2018-02-03T17:31:24.712Z,13.87
2018-02-03T17:33:53.345Z,15.80
2018-02-03T17:36:27.363Z,14.43
2018-02-03T17:39:12.926Z,13.73
2018-02-03T17:41:41.192Z,14.73
2018-02-03T17:44:09.435Z,14.77
2018-02-03T17:46:43.269Z,14.13
2018-02-03T17:49:12.300Z,14.90
2018-02-03T17:51:42.542Z,15.37
2018-02-03T17:54:10.841Z,13.87
2018-02-03T17:56:45.646Z,15.27
2018-02-03T17:59:15.068Z,14.90
2018-02-03T18:01:44.067Z,14.80
2018-02-03T18:04:12.308Z,16.67
2018-02-03T18:06:46.159Z,16.90
2018-02-03T18:09:14.392Z,16.40
2018-02-03T18:11:44.020Z,16.63
2018-02-03T18:14:13.328Z,15.40
2018-02-03T18:16:41.564Z,14.77
2018-02-03T18:19:09.796Z,16.33
2018-02-03T18:21:38.059Z,15.80
2018-02-03T18:24:07.792Z,15.00
2018-02-03T18:26:36.024Z,14.33
2018-02-03T18:29:05.833Z,15.97
2018-02-03T18:31:34.096Z,14.20
2018-02-03T18:34:02.342Z,18.10
2018-02-03T18:36:30.579Z,16.33
2018-02-03T18:38:59.083Z,13.67
2018-02-03T18:41:27.723Z,15.67
2018-02-03T18:43:55.956Z,14.17
2018-02-03T18:46:24.231Z,15.20
2018-02-03T18:48:52.469Z,14.07
2018-02-03T18:51:20.696Z,15.73
2018-02-03T18:53:48.959Z,15.70
2018-02-03T18:56:18.328Z,15.83
2018-02-03T18:58:47.910Z,14.00
2018-02-03T19:01:18.198Z,15.30
2018-02-03T19:03:46.828Z,15.00
2018-02-03T19:06:16.627Z,14.93
2018-02-03T19:08:48.143Z,15.57
2018-02-03T19:11:17.748Z,15.00
2018-02-03T19:13:47.330Z,16.70
2018-02-03T19:16:16.932Z,15.67
2018-02-03T19:18:45.564Z,15.20
2018-02-03T19:21:15.169Z,16.60
2018-02-03T19:23:43.715Z,16.47
2018-02-03T19:26:11.968Z,15.80
2018-02-03T19:28:41.563Z,17.50
2018-02-03T19:31:10.111Z,15.30
2018-02-03T19:33:39.698Z,15.27
2018-02-03T19:36:09.159Z,14.70
2018-02-03T19:38:37.291Z,15.93
2018-02-03T19:41:05.525Z,15.63
2018-02-03T19:43:33.775Z,17.53
2018-02-03T19:46:02.895Z,16.87
2018-02-03T19:48:31.179Z,16.00
2018-02-03T19:51:00.771Z,16.20
2018-02-03T19:53:30.316Z,17.00
2018-02-03T19:55:59.766Z,17.93
2018-02-03T19:58:29.249Z,18.03
2018-02-03T20:00:57.412Z,22.50
2018-02-03T20:03:26.408Z,25.17
2018-02-03T20:05:54.644Z,22.80
2018-02-03T20:08:23.671Z,18.13
2018-02-03T20:10:51.909Z,18.53
2018-02-03T20:13:20.131Z,20.37
2018-02-03T20:15:48.410Z,19.60
2018-02-03T20:18:16.652Z,18.67
2018-02-03T20:20:46.450Z,17.93
2018-02-03T20:23:14.768Z,18.30
2018-02-03T20:25:43.062Z,18.83
2018-02-03T20:31:11.108Z,18.40
2018-02-03T20:33:39.316Z,16.33
2018-02-03T20:36:07.548Z,17.50
2018-02-03T20:38:37.246Z,18.37
2018-02-03T20:41:06.117Z,17.43
2018-02-03T20:43:37.991Z,17.73
2018-02-03T20:46:06.538Z,18.30
2018-02-03T20:48:35.566Z,17.67
2018-02-03T20:51:03.866Z,19.87
2018-02-03T20:53:32.098Z,19.60
2018-02-03T20:56:01.891Z,19.97
2018-02-03T20:58:30.143Z,20.53
2018-02-03T21:00:59.211Z,21.67
2018-02-03T21:03:28.235Z,19.70
2018-02-03T21:05:56.500Z,22.63
2018-02-03T21:08:25.500Z,23.13
2018-02-03T21:10:54.871Z,20.80
2018-02-03T21:13:24.178Z,20.77
2018-02-03T21:15:53.218Z,22.47
2018-02-03T21:18:22.835Z,21.70
2018-02-03T21:20:52.311Z,21.20
2018-02-03T21:23:21.188Z,18.10
2018-02-03T21:25:49.421Z,21.07
2018-02-03T21:28:19.081Z,21.23
2018-02-03T21:30:47.576Z,21.23
2018-02-03T21:33:15.831Z,20.60
2018-02-03T21:35:44.118Z,21.03
2018-02-03T21:38:13.882Z,18.70
2018-02-03T21:40:42.136Z,19.23
2018-02-03T21:43:12.559Z,20.77
2018-02-03T21:45:40.660Z,22.20
2018-02-03T21:48:08.888Z,22.07
2018-02-03T21:50:38.289Z,22.57
2018-02-03T21:53:06.515Z,19.20
2018-02-03T21:55:35.518Z,21.70
2018-02-03T21:58:05.149Z,21.47
2018-02-03T22:00:33.256Z,21.00
2018-02-03T22:03:01.528Z,22.70
2018-02-03T22:05:29.797Z,21.27
2018-02-03T22:07:58.088Z,21.73
2018-02-03T22:10:27.514Z,21.97
2018-02-03T22:12:55.776Z,20.63
2018-02-03T22:15:24.018Z,21.37
2018-02-03T22:17:53.646Z,21.10
2018-02-03T22:20:21.831Z,24.10
2018-02-03T22:22:50.048Z,22.70
2018-02-03T22:25:19.641Z,21.67
2018-02-03T22:27:48.974Z,23.93
2018-02-03T22:30:17.267Z,18.27
2018-02-03T22:32:46.266Z,18.90
2018-02-03T22:35:14.541Z,18.40
2018-02-03T22:37:42.782Z,16.33
2018-02-03T22:40:11.020Z,16.67
2018-02-03T22:42:40.692Z,18.97
2018-02-03T22:45:09.560Z,23.30
2018-02-03T22:47:37.791Z,29.50
2018-02-03T22:50:06.076Z,24.57
2018-02-03T22:52:35.073Z,25.97
2018-02-03T22:55:03.300Z,25.87
2018-02-03T22:57:32.915Z,23.27
2018-02-03T23:00:01.428Z,24.50
2018-02-03T23:02:36.071Z,23.90
2018-02-03T23:05:06.241Z,24.90
2018-02-03T23:07:34.298Z,24.37
2018-02-03T23:10:02.567Z,26.70
2018-02-03T23:12:30.823Z,26.33
2018-02-03T23:15:00.203Z,25.10
2018-02-03T23:17:28.472Z,23.13
2018-02-03T23:19:56.704Z,23.33
2018-02-03T23:22:24.935Z,20.67
2018-02-03T23:24:53.225Z,21.73
2018-02-03T23:27:21.456Z,23.97
2018-02-03T23:29:51.049Z,21.10
2018-02-03T23:32:19.184Z,19.33
2018-02-03T23:34:48.179Z,18.97
2018-02-03T23:37:17.773Z,17.07
2018-02-03T23:39:47.263Z,16.10
2018-02-03T23:42:15.374Z,15.03
2018-02-03T23:44:44.017Z,16.73
2018-02-03T23:47:12.282Z,15.93
2018-02-03T23:49:40.519Z,16.33
2018-02-03T23:52:08.748Z,16.87
2018-02-03T23:54:38.551Z,16.27
2018-02-03T23:57:06.780Z,17.07
2018-02-03T23:59:35.012Z,18.57
